Monroe Bridge, Massachusetts
Current Conditions -  °F | °C
As of 4:52 AM on Thursday 23 Oct 2014 (Local Time) from KAQW Reporting Station
Light Rain Light Rain  
Wind Chill: 41°   Ceiling: 2900
Heat Index: 45°   Visibility: 8mi
Dew Point: 44°   Wind: 8mph
Humidity: 97%   Direction: 290°WNW
Pressure: 29.82"   Gusts: NA
Location:  42.72°N, 72.94°W
Report Text: KAQW 230852Z AUTO 29007KT 8SM -RA BKN029 OVC048 07/07 A2982 RMK AO2 SLP101 P0010 60051 T00720067 56018
Loading
Personal Weather Stations






























Interactive Weather Map
Tropical Storm Tracking
New forecast layout! Learn more

10-Day Weather Forecast

Advertisements
Track Severe Weather on mobile